Time;durP1;ratioP1;P1;durP2;ratioP2;P2;SDS_P1;SDS_P2;PMS_P1;PMS_P2;Temp;Humidity;BMP_temperature;BMP_pressure;BME280_temperature;BME280_humidity;BME280_pressure;Samples;Min_cycle;Max_cycle;Signal;HPM_P1;HPM_P2
2021/09/03 00:00:54;;;;;;;;;;;9.00;99.90;;;;;;5089644;28;19975;-71
2021/09/03 00:03:20;;;;;;;;;;;9.00;99.90;;;;;;5091003;28;19994;-71
2021/09/03 00:05:45;;;;;;;;;;;8.90;99.90;;;;;;5091146;28;19912;-71
2021/09/03 00:08:11;;;;;;;;;;;8.80;99.90;;;;;;5089830;28;19908;-71
2021/09/03 00:10:36;;;;;;;;;;;8.80;99.90;;;;;;5107357;28;20359;-71
2021/09/03 00:13:02;;;;;;;;;;;8.80;99.90;;;;;;5106541;28;20381;-71
2021/09/03 00:15:27;;;;;;;;;;;8.80;99.90;;;;;;5099302;28;19908;-71
2021/09/03 00:17:53;;;;;;;;;;;8.80;99.90;;;;;;5090960;28;19908;-71
2021/09/03 00:20:18;;;;;;;;;;;8.80;99.90;;;;;;5084423;28;19908;-71
2021/09/03 00:22:44;;;;;;;;;;;8.80;99.90;;;;;;5100020;28;20320;-71
2021/09/03 00:25:10;;;;;;;;;;;8.80;99.90;;;;;;5111701;28;19939;-71
2021/09/03 00:27:36;;;;;;;;;;;8.70;99.90;;;;;;5114989;28;20098;-71
2021/09/03 00:30:02;;;;;;;;;;;8.70;99.90;;;;;;5110326;28;19950;-71
2021/09/03 00:32:28;;;;;;;;;;;8.60;99.90;;;;;;5111927;28;19908;-71
2021/09/03 00:34:53;;;;;;;;;;;8.70;99.90;;;;;;5107746;28;19920;-71
2021/09/03 00:37:19;;;;;;;;;;;8.60;99.90;;;;;;5098749;28;20380;-71
2021/09/03 00:39:44;;;;;;;;;;;8.60;99.90;;;;;;5092915;28;20326;-71
2021/09/03 00:42:10;;;;;;;;;;;8.60;99.90;;;;;;5089396;28;19989;-71
2021/09/03 00:44:36;;;;;;;;;;;8.60;99.90;;;;;;5089446;28;19909;-71
2021/09/03 00:47:02;;;;;;;;;;;8.50;99.90;;;;;;5113448;28;19920;-71
2021/09/03 00:49:27;;;;;;;;;;;8.50;99.90;;;;;;5104573;28;19909;-71
2021/09/03 00:51:54;;;;;;;;;;;8.50;99.90;;;;;;5095770;28;19947;-71
2021/09/03 00:54:19;;;;;;;;;;;8.60;99.90;;;;;;5075201;28;19916;-71
2021/09/03 00:56:45;;;;;;;;;;;8.60;99.90;;;;;;5091162;28;19908;-71
2021/09/03 00:59:11;;;;;;;;;;;8.50;99.90;;;;;;5110490;28;19907;-71
2021/09/03 01:01:37;;;;;;;;;;;8.40;99.90;;;;;;5113153;28;19998;-71
2021/09/03 01:04:02;;;;;;;;;;;8.40;99.90;;;;;;5091601;28;20365;-71
2021/09/03 01:06:28;;;;;;;;;;;8.40;99.90;;;;;;5093799;28;20357;-71
2021/09/03 01:08:53;;;;;;;;;;;8.40;99.90;;;;;;5094084;28;20098;-71
2021/09/03 01:11:19;;;;;;;;;;;8.30;99.90;;;;;;5094032;28;19953;-71
2021/09/03 01:13:44;;;;;;;;;;;8.30;99.90;;;;;;5094062;28;20359;-71
2021/09/03 01:16:10;;;;;;;;;;;8.30;99.90;;;;;;5101344;28;19947;-71
2021/09/03 01:18:35;;;;;;;;;;;8.30;99.90;;;;;;5093846;28;19908;-71
2021/09/03 01:21:01;;;;;;;;;;;8.30;99.90;;;;;;5093691;28;19917;-71
2021/09/03 01:23:26;;;;;;;;;;;8.20;99.90;;;;;;5092769;28;19912;-71
2021/09/03 01:26:00;;;;;;;;;;;8.30;99.90;;;;;;5093360;28;19916;-71
2021/09/03 01:28:25;;;;;;;;;;;8.10;99.90;;;;;;5098784;28;19930;-71
2021/09/03 01:30:51;;;;;;;;;;;8.10;99.90;;;;;;5113706;28;19907;-71
2021/09/03 01:33:16;;;;;;;;;;;8.10;99.90;;;;;;5114025;28;19908;-71
2021/09/03 01:35:42;;;;;;;;;;;8.00;99.90;;;;;;5113836;28;19911;-71
2021/09/03 01:38:08;;;;;;;;;;;8.10;99.90;;;;;;5106192;28;20364;-71
2021/09/03 01:40:33;;;;;;;;;;;8.10;99.90;;;;;;5113685;28;19908;-71
2021/09/03 01:42:59;;;;;;;;;;;8.10;99.90;;;;;;5113757;28;19907;-71
2021/09/03 01:45:24;;;;;;;;;;;8.00;99.90;;;;;;5113615;28;19911;-71
2021/09/03 01:47:50;;;;;;;;;;;8.00;99.90;;;;;;5113414;28;19946;-71
2021/09/03 01:50:15;;;;;;;;;;;8.00;99.90;;;;;;5113647;28;19933;-71
2021/09/03 01:52:41;;;;;;;;;;;8.10;99.90;;;;;;5113434;28;19907;-71
2021/09/03 01:55:06;;;;;;;;;;;8.10;99.90;;;;;;5113474;28;20374;-71
2021/09/03 01:57:32;;;;;;;;;;;8.10;99.90;;;;;;5113243;28;20010;-71
2021/09/03 01:59:57;;;;;;;;;;;7.90;99.90;;;;;;5113402;28;19907;-71
2021/09/03 02:02:23;;;;;;;;;;;7.90;99.90;;;;;;5113322;28;19950;-71
2021/09/03 02:04:48;;;;;;;;;;;7.90;99.90;;;;;;5113297;28;19915;-71
2021/09/03 02:07:14;;;;;;;;;;;7.80;99.90;;;;;;5103534;28;19912;-71
2021/09/03 02:09:39;;;;;;;;;;;7.80;99.90;;;;;;5092640;28;19934;-71
2021/09/03 02:12:05;;;;;;;;;;;7.80;99.90;;;;;;5092685;28;20284;-71
2021/09/03 02:14:30;;;;;;;;;;;7.70;99.90;;;;;;5092823;28;20012;-71
2021/09/03 02:16:56;;;;;;;;;;;7.80;99.90;;;;;;5092392;28;20000;-71
2021/09/03 02:19:21;;;;;;;;;;;7.80;99.90;;;;;;5092892;28;19908;-71
2021/09/03 02:21:47;;;;;;;;;;;7.70;99.90;;;;;;5092546;28;19908;-71
2021/09/03 02:24:12;;;;;;;;;;;7.70;99.90;;;;;;5092644;28;19919;-71
2021/09/03 02:26:38;;;;;;;;;;;7.70;99.90;;;;;;5092199;28;20315;-71
2021/09/03 02:29:03;;;;;;;;;;;7.80;99.90;;;;;;5092510;28;19908;-71
2021/09/03 02:31:29;;;;;;;;;;;7.70;99.90;;;;;;5092324;28;19908;-71
2021/09/03 02:33:54;;;;;;;;;;;7.60;99.90;;;;;;5087395;28;19908;-71
2021/09/03 02:36:20;;;;;;;;;;;7.60;99.90;;;;;;5112164;28;19955;-71
2021/09/03 02:38:46;;;;;;;;;;;7.50;99.90;;;;;;5112801;28;20365;-71
2021/09/03 02:41:11;;;;;;;;;;;7.50;99.90;;;;;;5112486;28;19907;-71
2021/09/03 02:43:37;;;;;;;;;;;7.50;99.90;;;;;;5112753;28;19908;-71
2021/09/03 02:46:02;;;;;;;;;;;7.50;99.90;;;;;;5112047;28;20447;-71
2021/09/03 02:48:29;;;;;;;;;;;7.50;99.90;;;;;;5112171;28;19952;-71
2021/09/03 02:50:54;;;;;;;;;;;7.40;99.90;;;;;;5112226;28;19908;-71
2021/09/03 02:53:20;;;;;;;;;;;7.50;99.90;;;;;;5112292;28;19996;-71
2021/09/03 02:55:45;;;;;;;;;;;7.50;99.90;;;;;;5112311;28;19908;-71
2021/09/03 02:58:11;;;;;;;;;;;7.50;99.90;;;;;;5095663;28;19977;-71
2021/09/03 03:00:36;;;;;;;;;;;7.50;99.90;;;;;;5092112;28;19908;-71
2021/09/03 03:03:02;;;;;;;;;;;7.50;99.90;;;;;;5092259;28;20307;-71
2021/09/03 03:05:27;;;;;;;;;;;7.60;99.90;;;;;;5091620;28;19912;-71
2021/09/03 03:07:53;;;;;;;;;;;7.50;99.90;;;;;;5091347;28;19908;-71
2021/09/03 03:10:18;;;;;;;;;;;7.50;99.90;;;;;;5091803;28;19908;-71
2021/09/03 03:12:46;;;;;;;;;;;7.30;99.90;;;;;;5091776;28;19931;-71
2021/09/03 03:15:11;;;;;;;;;;;7.30;99.90;;;;;;5091766;28;19908;-71
2021/09/03 03:17:37;;;;;;;;;;;7.40;99.90;;;;;;5091337;28;19909;-71
2021/09/03 03:20:03;;;;;;;;;;;7.40;99.90;;;;;;5091510;28;19912;-71
2021/09/03 03:22:28;;;;;;;;;;;7.20;99.90;;;;;;5091498;28;20285;-71
2021/09/03 03:24:54;;;;;;;;;;;7.20;99.90;;;;;;5091497;28;19919;-71
2021/09/03 03:27:19;;;;;;;;;;;7.30;99.90;;;;;;5089946;28;19915;-71
2021/09/03 03:29:45;;;;;;;;;;;7.40;99.90;;;;;;5083046;28;19908;-71
2021/09/03 03:32:10;;;;;;;;;;;7.40;99.90;;;;;;5091381;28;19908;-71
2021/09/03 03:34:36;;;;;;;;;;;7.30;99.90;;;;;;5091346;28;19916;-71
2021/09/03 03:37:01;;;;;;;;;;;7.30;99.90;;;;;;5091011;28;19947;-71
2021/09/03 03:39:27;;;;;;;;;;;7.30;99.90;;;;;;5091788;28;20375;-71
2021/09/03 03:41:52;;;;;;;;;;;7.30;99.90;;;;;;5091625;28;19919;-71
2021/09/03 03:44:18;;;;;;;;;;;7.30;99.90;;;;;;5091499;28;20008;-71
2021/09/03 03:46:44;;;;;;;;;;;7.20;99.90;;;;;;5090860;28;20372;-71
2021/09/03 03:49:10;;;;;;;;;;;7.10;99.90;;;;;;5091190;28;19912;-71
2021/09/03 03:51:35;;;;;;;;;;;7.00;99.90;;;;;;5091172;28;20002;-71
2021/09/03 03:54:01;;;;;;;;;;;7.10;99.90;;;;;;5091261;28;19916;-71
2021/09/03 03:56:26;;;;;;;;;;;7.10;99.90;;;;;;5090963;28;19908;-71
2021/09/03 03:58:52;;;;;;;;;;;7.20;99.90;;;;;;5081919;28;20284;-71
2021/09/03 04:01:17;;;;;;;;;;;7.10;99.90;;;;;;5100595;28;19915;-71
2021/09/03 04:03:43;;;;;;;;;;;7.10;99.90;;;;;;5115491;28;19908;-71
2021/09/03 04:06:08;;;;;;;;;;;7.00;99.90;;;;;;5114910;28;19919;-71
2021/09/03 04:08:34;;;;;;;;;;;7.00;99.90;;;;;;5115715;28;20367;-71
2021/09/03 04:10:59;;;;;;;;;;;7.10;99.90;;;;;;5115705;28;20006;-71
2021/09/03 04:13:25;;;;;;;;;;;6.90;99.90;;;;;;5115542;28;20269;-71
2021/09/03 04:15:50;;;;;;;;;;;6.90;99.90;;;;;;5115813;28;19929;-71
2021/09/03 04:18:17;;;;;;;;;;;7.00;99.90;;;;;;5114941;28;19908;-71
2021/09/03 04:20:43;;;;;;;;;;;7.00;99.90;;;;;;5115238;28;19911;-71
2021/09/03 04:23:09;;;;;;;;;;;7.10;99.90;;;;;;5115172;28;19908;-71
2021/09/03 04:25:35;;;;;;;;;;;7.10;99.90;;;;;;5115236;28;20387;-71
2021/09/03 04:28:00;;;;;;;;;;;7.10;99.90;;;;;;5110482;28;19912;-71
2021/09/03 04:30:26;;;;;;;;;;;7.10;99.90;;;;;;5089350;28;19914;-70
2021/09/03 04:32:51;;;;;;;;;;;7.20;99.90;;;;;;5098082;28;20277;-70
2021/09/03 04:35:17;;;;;;;;;;;7.50;99.90;;;;;;5099216;28;19912;-70
2021/09/03 04:37:44;;;;;;;;;;;7.60;99.90;;;;;;5097523;28;19957;-70
2021/09/03 04:40:09;;;;;;;;;;;7.30;99.90;;;;;;5098498;28;19944;-71
2021/09/03 04:42:35;;;;;;;;;;;7.30;99.90;;;;;;5096913;28;19961;-71
2021/09/03 04:45:00;;;;;;;;;;;7.30;99.90;;;;;;5094625;28;19915;-71
2021/09/03 04:47:26;;;;;;;;;;;7.20;99.90;;;;;;5094318;28;20408;-70
2021/09/03 04:49:51;;;;;;;;;;;7.10;99.90;;;;;;5094224;28;19912;-70
2021/09/03 04:52:17;;;;;;;;;;;7.10;99.90;;;;;;5094295;28;20269;-70
2021/09/03 04:54:42;;;;;;;;;;;7.10;99.90;;;;;;5094278;28;19919;-70
2021/09/03 04:57:07;;;;;;;;;;;7.20;99.90;;;;;;5093801;28;20305;-70
2021/09/03 04:59:34;;;;;;;;;;;7.10;99.90;;;;;;5086508;28;19968;-71
2021/09/03 05:02:00;;;;;;;;;;;7.20;99.90;;;;;;5093744;28;19953;-71
2021/09/03 05:04:25;;;;;;;;;;;7.10;99.90;;;;;;5093555;28;20160;-70
2021/09/03 05:06:51;;;;;;;;;;;7.10;99.90;;;;;;5093497;28;19919;-70
2021/09/03 05:09:16;;;;;;;;;;;7.20;99.90;;;;;;5093989;28;20319;-70
2021/09/03 05:11:41;;;;;;;;;;;7.40;99.90;;;;;;5093331;28;19912;-70
2021/09/03 05:14:07;;;;;;;;;;;7.40;99.90;;;;;;5094259;28;19966;-71
2021/09/03 05:16:32;;;;;;;;;;;7.40;99.90;;;;;;5097436;28;19919;-71
2021/09/03 05:18:58;;;;;;;;;;;7.20;99.90;;;;;;5113834;28;19915;-71
2021/09/03 05:21:23;;;;;;;;;;;7.20;99.90;;;;;;5112454;28;19907;-71
2021/09/03 05:23:49;;;;;;;;;;;7.20;99.90;;;;;;5091199;28;19912;-71
2021/09/03 05:26:14;;;;;;;;;;;7.40;99.90;;;;;;5093053;28;19912;-71
2021/09/03 05:28:40;;;;;;;;;;;7.40;99.90;;;;;;5093508;28;20334;-71
2021/09/03 05:31:06;;;;;;;;;;;7.40;99.90;;;;;;5093363;28;19973;-71
2021/09/03 05:33:32;;;;;;;;;;;7.40;99.90;;;;;;5093432;28;19916;-71
2021/09/03 05:35:58;;;;;;;;;;;7.40;99.90;;;;;;5093591;28;19966;-71
2021/09/03 05:38:23;;;;;;;;;;;7.40;99.90;;;;;;5093075;28;19912;-71
2021/09/03 05:40:49;;;;;;;;;;;7.50;99.90;;;;;;5093530;28;19908;-71
2021/09/03 05:43:20;;;;;;;;;;;7.60;99.90;;;;;;5093344;28;20015;-71
2021/09/03 05:45:45;;;;;;;;;;;7.50;99.90;;;;;;5093101;28;20385;-71
2021/09/03 05:48:11;;;;;;;;;;;7.60;99.90;;;;;;5092721;28;20238;-71
2021/09/03 05:50:36;;;;;;;;;;;7.70;99.90;;;;;;5093405;28;20365;-71
2021/09/03 05:53:02;;;;;;;;;;;7.80;99.90;;;;;;5092851;28;19912;-71
2021/09/03 05:55:27;;;;;;;;;;;7.90;99.90;;;;;;5093006;28;19908;-71
2021/09/03 05:57:54;;;;;;;;;;;7.90;99.90;;;;;;5089277;28;19915;-71
2021/09/03 06:00:20;;;;;;;;;;;8.00;99.90;;;;;;5106866;28;20272;-71
2021/09/03 06:02:46;;;;;;;;;;;8.00;99.90;;;;;;5113628;28;19919;-71
2021/09/03 06:05:11;;;;;;;;;;;8.10;99.90;;;;;;5113218;28;19916;-71
2021/09/03 06:07:37;;;;;;;;;;;8.30;99.90;;;;;;5112749;28;20276;-71
2021/09/03 06:10:03;;;;;;;;;;;8.40;99.90;;;;;;5112988;28;20011;-71
2021/09/03 06:12:29;;;;;;;;;;;8.50;99.90;;;;;;5101139;28;19953;-71
2021/09/03 06:14:54;;;;;;;;;;;8.60;99.90;;;;;;5092409;28;19912;-71
2021/09/03 06:17:20;;;;;;;;;;;8.90;99.90;;;;;;5092064;28;19915;-71
2021/09/03 06:19:45;;;;;;;;;;;9.00;99.90;;;;;;5092607;28;19908;-71
2021/09/03 06:22:11;;;;;;;;;;;9.10;99.90;;;;;;5092480;28;19908;-71
2021/09/03 06:24:36;;;;;;;;;;;9.40;99.90;;;;;;5091833;28;19961;-71
2021/09/03 06:27:02;;;;;;;;;;;9.60;99.90;;;;;;5092078;28;20186;-71
2021/09/03 06:29:43;;;;;;;;;;;9.80;99.90;;;;;;5092229;28;19908;-71
2021/09/03 06:32:16;;;;;;;;;;;9.90;99.90;;;;;;5088717;28;19917;-71
2021/09/03 06:34:42;;;;;;;;;;;10.00;99.90;;;;;;5105836;28;20345;-71
2021/09/03 06:37:08;;;;;;;;;;;10.10;99.90;;;;;;5112330;28;20342;-71
2021/09/03 06:39:34;;;;;;;;;;;10.20;99.90;;;;;;5112652;28;19960;-71
2021/09/03 06:41:59;;;;;;;;;;;10.30;99.90;;;;;;5112449;28;19907;-71
2021/09/03 06:44:25;;;;;;;;;;;10.30;99.90;;;;;;5112380;28;19916;-71
2021/09/03 06:46:50;;;;;;;;;;;10.50;99.90;;;;;;5111177;28;19962;-71
2021/09/03 06:49:16;;;;;;;;;;;10.60;99.90;;;;;;5111690;28;19912;-71
2021/09/03 06:51:42;;;;;;;;;;;10.80;99.90;;;;;;5110840;28;19950;-71
2021/09/03 06:54:08;;;;;;;;;;;11.00;99.90;;;;;;5092661;28;20314;-71
2021/09/03 06:56:33;;;;;;;;;;;11.10;99.90;;;;;;5090603;28;19909;-71
2021/09/03 06:59:00;;;;;;;;;;;11.20;99.90;;;;;;5091028;28;19908;-71
2021/09/03 07:01:25;;;;;;;;;;;11.30;99.90;;;;;;5090941;28;19916;-71
2021/09/03 07:03:51;;;;;;;;;;;11.50;99.90;;;;;;5091145;28;19908;-71
2021/09/03 07:06:16;;;;;;;;;;;11.60;99.90;;;;;;5090168;28;19959;-71
2021/09/03 07:08:42;;;;;;;;;;;11.80;99.90;;;;;;5090834;28;19913;-71
2021/09/03 07:11:07;;;;;;;;;;;12.00;99.90;;;;;;5090929;28;19908;-71
2021/09/03 07:13:34;;;;;;;;;;;12.30;99.90;;;;;;5090625;28;20319;-71
2021/09/03 07:16:00;;;;;;;;;;;12.30;99.90;;;;;;5083891;28;19909;-71
2021/09/03 07:18:26;;;;;;;;;;;12.60;99.90;;;;;;5075229;28;20339;-71
2021/09/03 07:20:51;;;;;;;;;;;12.70;99.90;;;;;;5095073;28;19994;-71
2021/09/03 07:23:17;;;;;;;;;;;12.90;99.90;;;;;;5086242;28;20369;-71
2021/09/03 07:25:42;;;;;;;;;;;12.90;99.90;;;;;;5089481;28;20305;-72
2021/09/03 07:28:08;;;;;;;;;;;13.20;99.90;;;;;;5089357;28;20270;-72
2021/09/03 07:30:33;;;;;;;;;;;14.60;99.90;;;;;;5089457;28;19975;-72
2021/09/03 07:32:59;;;;;;;;;;;15.90;99.90;;;;;;5089630;28;20292;-71
2021/09/03 07:35:24;;;;;;;;;;;16.70;99.90;;;;;;5093678;28;19947;-72
2021/09/03 07:37:51;;;;;;;;;;;17.70;99.90;;;;;;5088718;28;20291;-71
2021/09/03 07:40:16;;;;;;;;;;;18.10;99.90;;;;;;5087443;28;19914;-72
2021/09/03 07:42:42;;;;;;;;;;;18.60;99.90;;;;;;5088154;28;20277;-72
2021/09/03 07:47:47;;;;;;;;;;;19.40;99.90;;;;;;5126391;27;19912;-72
2021/09/03 07:50:17;;;;;;;;;;;19.80;99.90;;;;;;5129005;28;20279;-72
2021/09/03 07:52:43;;;;;;;;;;;20.30;99.90;;;;;;5127658;28;20367;-72
2021/09/03 07:55:08;;;;;;;;;;;20.40;99.90;;;;;;5107591;28;19947;-72
2021/09/03 07:57:34;;;;;;;;;;;20.60;99.90;;;;;;5108549;28;19908;-72
2021/09/03 07:59:59;;;;;;;;;;;21.20;99.90;;;;;;5108807;28;20388;-72
2021/09/03 08:02:25;;;;;;;;;;;21.40;99.90;;;;;;5107081;28;19908;-72
2021/09/03 08:04:52;;;;;;;;;;;21.60;99.90;;;;;;5108727;28;19908;-72
2021/09/03 08:07:18;;;;;;;;;;;22.30;99.90;;;;;;5108325;28;19919;-72
2021/09/03 08:09:43;;;;;;;;;;;21.60;99.90;;;;;;5111837;28;19907;-73
2021/09/03 08:12:09;;;;;;;;;;;22.10;99.90;;;;;;5115416;28;19908;-72
2021/09/03 08:14:35;;;;;;;;;;;22.60;99.90;;;;;;5125720;28;19908;-73
2021/09/03 08:17:01;;;;;;;;;;;22.60;99.90;;;;;;5113604;28;19908;-72
2021/09/03 08:19:27;;;;;;;;;;;22.60;99.90;;;;;;5108590;28;20007;-72
2021/09/03 08:21:52;;;;;;;;;;;22.10;99.90;;;;;;5108250;28;19965;-72
2021/09/03 08:24:18;;;;;;;;;;;23.10;99.90;;;;;;5108096;28;19908;-73
2021/09/03 08:26:43;;;;;;;;;;;23.50;99.90;;;;;;5112287;28;20052;-70
2021/09/03 08:29:09;;;;;;;;;;;23.60;99.60;;;;;;5128705;28;19918;-70
2021/09/03 08:31:34;;;;;;;;;;;23.90;99.90;;;;;;5120388;28;19915;-72
2021/09/03 08:34:00;;;;;;;;;;;23.50;99.90;;;;;;5116687;28;20003;-72
2021/09/03 08:36:25;;;;;;;;;;;23.90;99.80;;;;;;5104942;28;19933;-72
2021/09/03 08:38:51;;;;;;;;;;;23.60;99.90;;;;;;5094998;28;19934;-73
2021/09/03 08:41:19;;;;;;;;;;;24.70;99.90;;;;;;5115451;28;19912;-72
2021/09/03 08:43:45;;;;;;;;;;;25.00;98.50;;;;;;5116234;28;20268;-70
2021/09/03 08:46:11;;;;;;;;;;;25.10;99.50;;;;;;5112693;28;19924;-72
2021/09/03 08:48:38;;;;;;;;;;;25.40;99.50;;;;;;5121369;28;19907;-72
2021/09/03 08:51:04;;;;;;;;;;;25.80;97.60;;;;;;5128278;28;19908;-71
2021/09/03 08:53:29;;;;;;;;;;;25.20;98.10;;;;;;5116164;28;19916;-71
2021/09/03 08:55:55;;;;;;;;;;;25.90;95.70;;;;;;5103905;28;19912;-72
2021/09/03 08:58:20;;;;;;;;;;;25.80;98.50;;;;;;5111841;28;19908;-73
2021/09/03 09:01:02;;;;;;;;;;;26.50;97.10;;;;;;5099879;28;19908;-71
2021/09/03 09:03:32;;;;;;;;;;;26.70;96.30;;;;;;5099587;28;19909;-72
2021/09/03 09:05:59;;;;;;;;;;;26.50;97.10;;;;;;5107676;28;20008;-72
2021/09/03 09:08:26;;;;;;;;;;;26.60;96.40;;;;;;5094963;28;19994;-72
2021/09/03 09:10:51;;;;;;;;;;;27.10;96.00;;;;;;5109981;28;19914;-72
2021/09/03 09:13:18;;;;;;;;;;;27.60;95.70;;;;;;5114174;28;20307;-73
2021/09/03 09:15:56;;;;;;;;;;;27.80;94.50;;;;;;5088698;28;20253;-72
2021/09/03 09:18:31;;;;;;;;;;;27.40;94.80;;;;;;5113443;28;19908;-72
2021/09/03 09:21:09;;;;;;;;;;;27.90;94.80;;;;;;5113594;28;19960;-72
2021/09/03 09:23:42;;;;;;;;;;;28.40;95.00;;;;;;5095478;28;20368;-71
2021/09/03 09:26:08;;;;;;;;;;;28.60;92.90;;;;;;5113317;28;19911;-72
2021/09/03 09:28:34;;;;;;;;;;;28.40;92.70;;;;;;5091076;28;20319;-72
2021/09/03 09:31:00;;;;;;;;;;;27.70;94.70;;;;;;5096787;28;19915;-72
2021/09/03 09:33:26;;;;;;;;;;;28.20;93.30;;;;;;5091047;28;19911;-72
2021/09/03 09:35:53;;;;;;;;;;;28.00;93.40;;;;;;5109903;28;19908;-72
2021/09/03 09:38:26;;;;;;;;;;;28.10;91.70;;;;;;5113342;28;19912;-72
2021/09/03 09:40:53;;;;;;;;;;;27.50;92.60;;;;;;5110592;28;19908;-72
2021/09/03 09:43:25;;;;;;;;;;;28.00;93.30;;;;;;5084613;28;19919;-72
2021/09/03 09:46:17;;;;;;;;;;;29.00;92.30;;;;;;5098615;28;19916;-72
2021/09/03 09:48:48;;;;;;;;;;;29.80;91.60;;;;;;5083089;28;19949;-72
2021/09/03 09:51:29;;;;;;;;;;;28.40;91.20;;;;;;5098485;28;20376;-72
2021/09/03 09:54:09;;;;;;;;;;;28.80;91.30;;;;;;5096757;28;19953;-73
2021/09/03 09:56:35;;;;;;;;;;;29.10;90.20;;;;;;5101781;28;19908;-72
2021/09/03 09:59:02;;;;;;;;;;;29.70;89.80;;;;;;5095796;28;19935;-72
2021/09/03 10:01:28;;;;;;;;;;;30.00;86.20;;;;;;5087214;28;19915;-73
2021/09/03 10:03:54;;;;;;;;;;;30.50;86.10;;;;;;5096430;28;19908;-74
2021/09/03 10:06:21;;;;;;;;;;;30.10;87.70;;;;;;5108734;28;19934;-74
2021/09/03 10:08:48;;;;;;;;;;;30.60;86.00;;;;;;5088930;28;19912;-71
2021/09/03 10:11:14;;;;;;;;;;;31.10;88.00;;;;;;5112267;28;20041;-71
2021/09/03 10:13:41;;;;;;;;;;;30.50;87.30;;;;;;5113011;28;19908;-72
2021/09/03 10:16:06;;;;;;;;;;;31.40;84.60;;;;;;5112796;28;19907;-74
2021/09/03 10:18:32;;;;;;;;;;;31.20;83.50;;;;;;5112936;28;20016;-72
2021/09/03 10:20:59;;;;;;;;;;;30.70;83.40;;;;;;5112549;28;20326;-71
2021/09/03 10:23:43;;;;;;;;;;;31.10;81.40;;;;;;5106669;28;19908;-72
2021/09/03 10:26:09;;;;;;;;;;;31.70;83.10;;;;;;5112521;28;19922;-73
2021/09/03 10:28:34;;;;;;;;;;;30.60;84.10;;;;;;5112646;28;20006;-73
2021/09/03 10:31:03;;;;;;;;;;;31.00;82.90;;;;;;5112542;28;19994;-73
2021/09/03 10:33:33;;;;;;;;;;;30.80;83.00;;;;;;5109118;28;19918;-74
2021/09/03 10:35:58;;;;;;;;;;;29.30;83.70;;;;;;5111517;28;19959;-71
2021/09/03 10:38:30;;;;;;;;;;;30.80;85.80;;;;;;5112346;28;19973;-71
2021/09/03 10:40:56;;;;;;;;;;;31.20;84.80;;;;;;5112457;28;19914;-71
2021/09/03 10:43:41;;;;;;;;;;;30.50;85.60;;;;;;5106102;28;19998;-71
2021/09/03 10:46:08;;;;;;;;;;;30.20;84.70;;;;;;5107158;28;19999;-71
2021/09/03 10:48:33;;;;;;;;;;;31.20;84.40;;;;;;5091648;28;19908;-71
2021/09/03 10:50:59;;;;;;;;;;;31.80;82.20;;;;;;5091731;28;20451;-71
2021/09/03 10:53:30;;;;;;;;;;;31.00;81.80;;;;;;5092434;28;19977;-72
2021/09/03 10:56:17;;;;;;;;;;;31.50;80.50;;;;;;5091843;28;20432;-71
2021/09/03 10:58:44;;;;;;;;;;;31.70;81.80;;;;;;5090583;28;20258;-74
2021/09/03 11:01:09;;;;;;;;;;;32.00;82.40;;;;;;5090276;28;19908;-74
2021/09/03 11:03:36;;;;;;;;;;;31.50;81.30;;;;;;5090506;28;20301;-74
2021/09/03 11:06:02;;;;;;;;;;;31.50;81.20;;;;;;5091503;28;19912;-72
2021/09/03 11:08:46;;;;;;;;;;;31.70;79.80;;;;;;5092019;28;19908;-72
2021/09/03 11:11:24;;;;;;;;;;;30.90;83.70;;;;;;5089916;28;19912;-71
2021/09/03 11:13:50;;;;;;;;;;;31.20;82.30;;;;;;5089248;28;19985;-71
2021/09/03 11:16:54;;;;;;;;;;;30.80;84.90;;;;;;5091466;28;19908;-71
2021/09/03 11:19:19;;;;;;;;;;;30.80;83.40;;;;;;5048675;28;19939;-71
2021/09/03 11:21:49;;;;;;;;;;;29.10;88.70;;;;;;5078042;28;20432;-71
2021/09/03 11:24:16;;;;;;;;;;;30.00;87.10;;;;;;5091799;28;19916;-72
2021/09/03 11:26:43;;;;;;;;;;;31.10;84.80;;;;;;5086320;28;19916;-72
2021/09/03 11:29:20;;;;;;;;;;;31.10;87.30;;;;;;5091389;28;19909;-72
2021/09/03 11:31:56;;;;;;;;;;;30.40;85.90;;;;;;5091159;28;20384;-72
2021/09/03 11:34:41;;;;;;;;;;;29.60;86.90;;;;;;5090180;28;19908;-71
2021/09/03 11:37:06;;;;;;;;;;;29.10;88.60;;;;;;5091248;28;19922;-72
2021/09/03 11:39:35;;;;;;;;;;;28.90;89.70;;;;;;5091389;28;19909;-72
2021/09/03 11:42:01;;;;;;;;;;;28.60;90.70;;;;;;5091276;28;20279;-72
2021/09/03 11:44:27;;;;;;;;;;;28.90;89.50;;;;;;5091354;28;19917;-72
2021/09/03 11:46:52;;;;;;;;;;;28.40;90.00;;;;;;5086367;28;19916;-72
2021/09/03 11:49:21;;;;;;;;;;;27.80;91.30;;;;;;5111431;28;19911;-71
2021/09/03 11:51:47;;;;;;;;;;;27.20;91.00;;;;;;5111343;28;19908;-71
2021/09/03 11:54:15;;;;;;;;;;;27.80;91.20;;;;;;5101757;28;20280;-71
2021/09/03 11:56:40;;;;;;;;;;;27.50;91.10;;;;;;5101132;28;19952;-71
2021/09/03 11:59:07;;;;;;;;;;;27.40;91.90;;;;;;5086001;28;19998;-71
2021/09/03 12:01:34;;;;;;;;;;;26.90;93.40;;;;;;5104166;28;19908;-71
2021/09/03 12:04:05;;;;;;;;;;;26.90;91.50;;;;;;5111210;28;20012;-71
2021/09/03 12:06:32;;;;;;;;;;;26.60;92.30;;;;;;5092857;28;19912;-71
2021/09/03 12:08:57;;;;;;;;;;;26.80;91.40;;;;;;5111549;28;20284;-71
2021/09/03 12:11:32;;;;;;;;;;;25.20;93.60;;;;;;5111041;28;19908;-71
2021/09/03 12:13:58;;;;;;;;;;;23.90;95.70;;;;;;5111566;28;20347;-71
2021/09/03 12:16:24;;;;;;;;;;;23.20;95.70;;;;;;5111433;28;20003;-71
2021/09/03 12:18:51;;;;;;;;;;;23.00;95.10;;;;;;5111293;28;19908;-71
2021/09/03 12:21:19;;;;;;;;;;;22.90;96.50;;;;;;5111243;28;19915;-71
2021/09/03 12:23:45;;;;;;;;;;;22.90;95.50;;;;;;5111317;28;19937;-71
2021/09/03 12:26:14;;;;;;;;;;;22.60;97.10;;;;;;5103245;28;20431;-71
2021/09/03 12:28:40;;;;;;;;;;;22.00;97.70;;;;;;5111251;28;20351;-71
2021/09/03 12:31:07;;;;;;;;;;;22.10;97.30;;;;;;5111117;28;19947;-71
2021/09/03 12:33:33;;;;;;;;;;;22.60;99.30;;;;;;5109224;28;19908;-71
2021/09/03 12:36:03;;;;;;;;;;;22.50;96.50;;;;;;5114078;28;20366;-71
2021/09/03 12:38:30;;;;;;;;;;;22.30;97.00;;;;;;5096883;28;19907;-71
2021/09/03 12:41:10;;;;;;;;;;;22.10;98.60;;;;;;5114952;28;19915;-71
2021/09/03 12:43:36;;;;;;;;;;;22.10;99.10;;;;;;5115267;28;19963;-71
2021/09/03 12:46:08;;;;;;;;;;;22.10;98.90;;;;;;5110206;28;19920;-71
2021/09/03 12:48:34;;;;;;;;;;;21.80;98.30;;;;;;5094625;28;20539;-71
2021/09/03 12:51:00;;;;;;;;;;;22.00;98.90;;;;;;5094606;28;20231;-72
2021/09/03 12:53:25;;;;;;;;;;;22.10;99.30;;;;;;5094354;28;19916;-71
2021/09/03 12:55:52;;;;;;;;;;;22.10;99.80;;;;;;5090465;28;19909;-71
2021/09/03 12:58:17;;;;;;;;;;;21.90;99.90;;;;;;5092579;28;19916;-71
2021/09/03 13:00:43;;;;;;;;;;;22.00;99.90;;;;;;5094215;28;20375;-71
2021/09/03 13:03:09;;;;;;;;;;;21.90;99.90;;;;;;5094175;28;19951;-71
2021/09/03 13:05:35;;;;;;;;;;;21.90;99.90;;;;;;5092031;28;19963;-71
2021/09/03 13:08:00;;;;;;;;;;;22.00;99.90;;;;;;5093610;28;19944;-71
2021/09/03 13:10:26;;;;;;;;;;;22.10;98.80;;;;;;5094120;28;19912;-71
2021/09/03 13:12:55;;;;;;;;;;;22.20;98.30;;;;;;5092053;28;19908;-71
2021/09/03 13:15:21;;;;;;;;;;;22.20;98.70;;;;;;5093907;28;19908;-72
2021/09/03 13:17:47;;;;;;;;;;;22.20;98.20;;;;;;5093712;28;19908;-72
2021/09/03 13:20:12;;;;;;;;;;;21.90;98.00;;;;;;5093610;28;20387;-71
2021/09/03 13:22:38;;;;;;;;;;;21.80;99.70;;;;;;5093719;28;19908;-71
2021/09/03 13:25:03;;;;;;;;;;;22.10;97.70;;;;;;5093807;28;19954;-71
2021/09/03 13:27:29;;;;;;;;;;;21.80;99.80;;;;;;5093382;28;19916;-71
2021/09/03 13:29:54;;;;;;;;;;;21.80;98.70;;;;;;5093814;28;19994;-71
2021/09/03 13:32:20;;;;;;;;;;;21.70;99.60;;;;;;5090248;28;20257;-71
2021/09/03 13:34:45;;;;;;;;;;;22.00;99.20;;;;;;5091959;28;19908;-71
2021/09/03 13:37:11;;;;;;;;;;;22.20;98.90;;;;;;5093054;28;19908;-72
2021/09/03 13:39:36;;;;;;;;;;;22.40;98.20;;;;;;5093719;28;20360;-71
2021/09/03 13:42:02;;;;;;;;;;;22.00;99.20;;;;;;5093850;28;19912;-71
2021/09/03 13:44:28;;;;;;;;;;;21.80;99.00;;;;;;5093409;28;19907;-71
2021/09/03 13:46:53;;;;;;;;;;;22.00;98.70;;;;;;5088875;28;20357;-71
2021/09/03 13:49:19;;;;;;;;;;;22.00;98.30;;;;;;5113401;28;19918;-71
2021/09/03 13:51:44;;;;;;;;;;;22.10;98.80;;;;;;5113751;28;19915;-72
2021/09/03 13:54:10;;;;;;;;;;;22.10;99.90;;;;;;5113715;28;19919;-72
2021/09/03 13:56:38;;;;;;;;;;;21.80;99.90;;;;;;5113272;28;19994;-71
2021/09/03 13:59:05;;;;;;;;;;;22.20;98.90;;;;;;5113905;28;19970;-71
2021/09/03 14:01:30;;;;;;;;;;;22.20;99.90;;;;;;5101860;28;20375;-71
2021/09/03 14:03:56;;;;;;;;;;;22.20;99.70;;;;;;5110527;28;19908;-71
2021/09/03 14:06:21;;;;;;;;;;;22.30;98.20;;;;;;5113020;28;19964;-71
2021/09/03 14:08:47;;;;;;;;;;;22.00;98.10;;;;;;5113394;28;19907;-72
2021/09/03 14:11:12;;;;;;;;;;;22.20;97.70;;;;;;5113040;28;19954;-72
2021/09/03 14:13:38;;;;;;;;;;;22.10;98.80;;;;;;5113299;28;19908;-72
2021/09/03 14:16:04;;;;;;;;;;;22.10;98.20;;;;;;5112940;28;19935;-72
2021/09/03 14:18:29;;;;;;;;;;;22.20;97.30;;;;;;5112915;28;19911;-72
2021/09/03 14:20:55;;;;;;;;;;;22.60;96.30;;;;;;5112918;28;20020;-72
2021/09/03 14:23:20;;;;;;;;;;;25.30;95.30;;;;;;5113025;28;19915;-73